createdAt,value
2022-09-25T00:01:21.120Z,57.63
2022-09-25T00:03:49.058Z,57.78
2022-09-25T00:06:21.689Z,58.03
2022-09-25T00:08:49.801Z,57.99
2022-09-25T00:11:24.946Z,58.11
2022-09-25T00:13:53.185Z,57.75
2022-09-25T00:16:27.046Z,57.91
2022-09-25T00:19:21.911Z,57.78
2022-09-25T00:21:52.881Z,57.63
2022-09-25T00:24:20.747Z,57.82
2022-09-25T00:26:47.786Z,57.78
2022-09-25T00:29:19.136Z,58.25
2022-09-25T00:31:46.543Z,58.32
2022-09-25T00:34:13.960Z,58.21
2022-09-25T00:36:41.225Z,58.21
2022-09-25T00:39:08.149Z,58.27
2022-09-25T00:41:35.391Z,58.35
2022-09-25T00:44:04.650Z,58.31
2022-09-25T00:46:34.645Z,58.11
2022-09-25T00:49:13.978Z,58.57
2022-09-25T00:51:54.584Z,58.66
2022-09-25T00:54:54.489Z,58.62
2022-09-25T00:57:26.621Z,58.19
2022-09-25T01:00:25.236Z,58.52
2022-09-25T01:02:54.804Z,58.55
2022-09-25T01:05:29.714Z,58.69
2022-09-25T01:08:00.709Z,58.66
2022-09-25T01:10:28.642Z,58.44
2022-09-25T01:12:57.734Z,58.57
2022-09-25T01:15:44.105Z,58.51
2022-09-25T01:18:51.314Z,58.37
2022-09-25T01:21:54.973Z,58.38
2022-09-25T01:24:44.913Z,58.73
2022-09-25T01:27:41.321Z,58.95
2022-09-25T01:30:18.673Z,58.68
2022-09-25T01:32:52.737Z,58.65
2022-09-25T01:36:24.266Z,58.75
2022-09-25T01:38:58.093Z,58.79
2022-09-25T01:41:35.801Z,59.16
2022-09-25T01:44:16.471Z,58.96
2022-09-25T01:46:48.095Z,59.27
2022-09-25T01:49:29.705Z,58.97
2022-09-25T01:51:58.796Z,58.88
2022-09-25T01:54:42.214Z,59.08
2022-09-25T01:57:49.245Z,59.14
2022-09-25T02:00:21.845Z,58.98
2022-09-25T02:02:55.475Z,59.11
2022-09-25T02:05:42.492Z,59.16
2022-09-25T02:08:19.420Z,59.41
2022-09-25T02:10:56.098Z,59.36
2022-09-25T02:13:27.815Z,59.19
2022-09-25T02:16:05.440Z,59.53
2022-09-25T02:18:51.480Z,59.10
2022-09-25T02:22:04.366Z,59.52
2022-09-25T02:24:40.284Z,59.48
2022-09-25T02:27:07.568Z,59.19
2022-09-25T02:29:35.085Z,59.63
2022-09-25T02:32:16.889Z,59.47
2022-09-25T02:34:43.922Z,59.29
2022-09-25T02:37:18.166Z,59.51
2022-09-25T02:39:49.978Z,59.30
2022-09-25T02:42:50.731Z,59.38
2022-09-25T02:45:27.005Z,59.71
2022-09-25T02:48:54.720Z,59.45
2022-09-25T02:51:35.364Z,59.46
2022-09-25T02:54:22.639Z,59.57
2022-09-25T02:57:21.934Z,59.37
2022-09-25T02:59:58.301Z,60.14
2022-09-25T03:02:28.188Z,59.49
2022-09-25T03:04:58.329Z,59.65
2022-09-25T03:07:25.926Z,59.91
2022-09-25T03:09:55.373Z,59.73
2022-09-25T03:12:22.283Z,59.60
2022-09-25T03:14:49.783Z,59.57
2022-09-25T03:17:17.819Z,59.75
2022-09-25T03:19:44.790Z,59.83
2022-09-25T03:22:12.067Z,59.99
2022-09-25T03:24:38.998Z,59.74
2022-09-25T03:27:05.990Z,60.10
2022-09-25T03:29:33.702Z,59.76
2022-09-25T03:32:01.789Z,59.81
2022-09-25T03:34:28.769Z,59.91
2022-09-25T03:36:55.857Z,60.22
2022-09-25T03:39:23.257Z,59.98
2022-09-25T03:41:50.315Z,60.21
2022-09-25T03:44:17.433Z,59.83
2022-09-25T03:46:44.485Z,60.27
2022-09-25T03:49:12.782Z,60.26
2022-09-25T03:51:41.077Z,60.11
2022-09-25T03:54:08.181Z,60.14
2022-09-25T03:56:35.378Z,60.12
2022-09-25T03:59:02.352Z,59.98
2022-09-25T04:01:30.624Z,60.25
2022-09-25T04:03:58.126Z,60.24
2022-09-25T04:06:27.141Z,60.17
2022-09-25T04:08:55.311Z,60.02
2022-09-25T04:11:25.163Z,60.06
2022-09-25T04:13:53.128Z,60.35
2022-09-25T04:16:23.940Z,60.13
2022-09-25T04:18:51.488Z,60.28
2022-09-25T04:21:19.029Z,60.13
2022-09-25T04:24:04.960Z,60.41
2022-09-25T04:26:33.480Z,60.11
2022-09-25T04:29:01.744Z,60.40
2022-09-25T04:31:30.194Z,60.13
2022-09-25T04:33:57.251Z,60.48
2022-09-25T04:36:24.537Z,60.47
2022-09-25T04:38:51.632Z,60.13
2022-09-25T04:41:20.450Z,60.38
2022-09-25T04:43:48.646Z,60.58
2022-09-25T04:46:21.844Z,60.29
2022-09-25T04:48:50.149Z,60.58
2022-09-25T04:51:17.464Z,60.73
2022-09-25T04:53:44.767Z,60.69
2022-09-25T04:56:15.534Z,60.79
2022-09-25T04:58:49.743Z,60.70
2022-09-25T05:01:20.151Z,60.65
2022-09-25T05:03:53.926Z,60.65
2022-09-25T05:06:22.736Z,61.00
2022-09-25T05:08:50.363Z,60.82
2022-09-25T05:11:18.272Z,60.86
2022-09-25T05:13:46.753Z,60.80
2022-09-25T05:16:14.497Z,60.95
2022-09-25T05:18:41.911Z,60.88
2022-09-25T05:21:09.669Z,60.83
2022-09-25T05:23:37.183Z,60.83
2022-09-25T05:26:04.527Z,60.86
2022-09-25T05:28:33.140Z,60.87
2022-09-25T05:31:05.128Z,61.16
2022-09-25T05:33:34.112Z,61.00
2022-09-25T05:36:07.431Z,61.11
2022-09-25T05:38:39.445Z,61.05
2022-09-25T05:41:09.142Z,61.23
2022-09-25T05:43:44.122Z,61.15
2022-09-25T05:46:11.578Z,61.19
2022-09-25T05:48:38.958Z,61.11
2022-09-25T05:51:06.899Z,61.08
2022-09-25T05:53:34.489Z,61.24
2022-09-25T05:56:05.173Z,61.52
2022-09-25T05:58:34.204Z,61.46
2022-09-25T06:01:06.930Z,61.47
2022-09-25T06:03:34.271Z,61.57
2022-09-25T06:06:02.383Z,61.25
2022-09-25T06:08:32.989Z,61.12
2022-09-25T06:11:01.307Z,61.16
2022-09-25T06:13:32.879Z,61.34
2022-09-25T06:16:00.280Z,61.26
2022-09-25T06:18:28.001Z,61.51
2022-09-25T06:21:05.321Z,61.45
2022-09-25T06:23:32.809Z,61.41
2022-09-25T06:26:06.038Z,61.94
2022-09-25T06:28:33.615Z,61.84
2022-09-25T06:31:02.970Z,61.59
2022-09-25T06:33:31.199Z,61.41
2022-09-25T06:35:59.010Z,61.77
2022-09-25T06:38:26.017Z,61.84
2022-09-25T06:40:54.037Z,62.21
2022-09-25T06:43:23.032Z,62.21
2022-09-25T06:45:51.399Z,62.14
2022-09-25T06:48:18.815Z,62.02
2022-09-25T06:50:55.241Z,62.18
2022-09-25T06:53:26.036Z,61.83
2022-09-25T06:55:56.610Z,61.83
2022-09-25T06:58:25.710Z,61.78
2022-09-25T07:00:55.887Z,61.80
2022-09-25T07:03:42.143Z,61.99
2022-09-25T07:06:12.962Z,61.88
2022-09-25T07:08:40.882Z,61.60
2022-09-25T07:11:08.214Z,61.84
2022-09-25T07:13:36.964Z,61.38
2022-09-25T07:16:27.001Z,61.63
2022-09-25T07:19:02.823Z,61.50
2022-09-25T07:21:32.370Z,61.48
2022-09-25T07:23:59.768Z,61.59
2022-09-25T07:26:33.852Z,61.48
2022-09-25T07:29:04.760Z,61.34
2022-09-25T07:31:35.067Z,61.36
2022-09-25T07:34:03.150Z,61.57
2022-09-25T07:36:30.528Z,61.62
2022-09-25T07:38:57.734Z,61.49
2022-09-25T07:41:24.883Z,61.47
2022-09-25T07:46:46.369Z,61.63
2022-09-25T07:49:14.206Z,61.62
2022-09-25T07:51:41.289Z,61.67
2022-09-25T07:54:08.595Z,61.49
2022-09-25T07:56:38.037Z,61.71
2022-09-25T07:59:05.511Z,61.58
2022-09-25T08:01:32.572Z,61.64
2022-09-25T08:04:00.136Z,61.62
2022-09-25T08:06:27.405Z,61.94
2022-09-25T08:08:54.518Z,61.77
2022-09-25T08:11:23.274Z,61.68
2022-09-25T08:13:50.519Z,61.22
2022-09-25T08:16:20.726Z,61.73
2022-09-25T08:18:48.777Z,61.31
2022-09-25T08:21:19.912Z,61.69
2022-09-25T08:23:53.100Z,61.97
2022-09-25T08:26:22.550Z,61.96
2022-09-25T08:28:50.867Z,61.97
2022-09-25T08:31:18.272Z,61.87
2022-09-25T08:33:50.841Z,61.80
2022-09-25T08:36:19.368Z,61.74
2022-09-25T08:38:46.747Z,61.72
2022-09-25T08:41:26.939Z,61.60
2022-09-25T08:44:11.458Z,61.77
2022-09-25T08:47:09.762Z,60.94
2022-09-25T08:50:11.751Z,61.19
2022-09-25T08:52:45.119Z,61.00
2022-09-25T08:55:52.862Z,60.96
2022-09-25T08:58:42.886Z,60.96
2022-09-25T09:01:42.712Z,61.06
2022-09-25T09:04:19.573Z,61.44
2022-09-25T09:07:24.745Z,61.25
2022-09-25T09:09:48.367Z,61.16
2022-09-25T09:12:31.912Z,61.45
2022-09-25T09:15:28.924Z,61.43
2022-09-25T09:18:00.355Z,60.99
2022-09-25T09:20:54.525Z,60.61
2022-09-25T09:23:25.370Z,60.63
2022-09-25T09:26:03.478Z,59.73
2022-09-25T09:28:58.760Z,59.88
2022-09-25T09:32:21.877Z,59.38
2022-09-25T09:35:12.830Z,59.53
2022-09-25T09:38:10.455Z,59.06
2022-09-25T09:41:13.857Z,59.55
2022-09-25T09:43:57.332Z,59.07
2022-09-25T09:46:38.400Z,59.61
2022-09-25T09:49:33.642Z,58.89
2022-09-25T09:52:34.549Z,59.53
2022-09-25T09:55:33.259Z,59.20
2022-09-25T09:58:09.480Z,59.75
2022-09-25T10:00:39.624Z,59.32
2022-09-25T10:03:19.944Z,59.63
2022-09-25T10:05:50.522Z,59.62
2022-09-25T10:08:18.327Z,59.83
2022-09-25T10:10:51.860Z,59.35
2022-09-25T10:13:32.525Z,59.54
2022-09-25T10:16:05.609Z,59.45
2022-09-25T10:18:43.039Z,59.04
2022-09-25T10:21:22.906Z,59.24
2022-09-25T10:24:04.225Z,59.65
2022-09-25T10:26:40.041Z,59.54
2022-09-25T10:29:10.356Z,58.97
2022-09-25T10:31:40.387Z,58.22
2022-09-25T10:34:22.271Z,58.30
2022-09-25T10:36:52.776Z,58.34
2022-09-25T10:39:44.045Z,57.73
2022-09-25T10:42:37.830Z,57.99
2022-09-25T10:45:23.168Z,57.17
2022-09-25T10:48:10.340Z,57.23
2022-09-25T10:50:37.684Z,57.18
2022-09-25T10:53:06.927Z,56.99
2022-09-25T10:55:38.949Z,56.15
2022-09-25T10:58:21.223Z,56.12
2022-09-25T11:00:52.419Z,56.23
2022-09-25T11:03:25.577Z,56.07
2022-09-25T11:05:59.728Z,56.20
2022-09-25T11:08:33.090Z,56.03
2022-09-25T11:11:03.108Z,56.22
2022-09-25T11:13:47.372Z,56.25
2022-09-25T11:16:14.694Z,56.21
2022-09-25T11:18:52.387Z,56.06
2022-09-25T11:21:29.530Z,56.73
2022-09-25T11:25:05.002Z,56.71
2022-09-25T11:27:58.486Z,56.35
2022-09-25T11:30:32.487Z,56.14
2022-09-25T11:33:42.394Z,56.34
2022-09-25T11:36:18.952Z,56.23
2022-09-25T11:39:15.043Z,55.64
2022-09-25T11:42:12.117Z,56.06
2022-09-25T11:45:40.719Z,56.11
2022-09-25T11:48:21.273Z,55.99
2022-09-25T11:51:02.244Z,55.82
2022-09-25T11:54:31.941Z,55.84
2022-09-25T11:57:11.131Z,56.08
2022-09-25T12:00:07.890Z,55.72
2022-09-25T12:02:52.974Z,55.76
2022-09-25T12:06:16.520Z,55.52
2022-09-25T12:09:10.499Z,55.64
2022-09-25T12:12:15.730Z,55.53
2022-09-25T12:15:31.576Z,54.99
2022-09-25T12:18:29.387Z,55.07
2022-09-25T12:22:11.455Z,55.25
2022-09-25T12:25:05.130Z,54.66
2022-09-25T12:28:25.030Z,54.99
2022-09-25T12:31:08.972Z,54.35
2022-09-25T12:33:58.137Z,54.30
2022-09-25T12:36:41.905Z,54.04
2022-09-25T12:39:58.311Z,54.24
2022-09-25T12:42:57.592Z,54.26
2022-09-25T12:45:45.725Z,54.13
2022-09-25T12:48:24.181Z,54.51
2022-09-25T12:51:17.614Z,54.74
2022-09-25T12:53:57.574Z,54.73
2022-09-25T12:56:43.656Z,54.61
2022-09-25T12:59:41.513Z,53.99
2022-09-25T13:02:52.728Z,54.17
2022-09-25T13:05:45.439Z,53.41
2022-09-25T13:08:46.829Z,53.21
2022-09-25T13:11:34.605Z,53.62
2022-09-25T13:14:03.438Z,53.80
2022-09-25T13:16:30.612Z,53.51
2022-09-25T13:19:29.113Z,53.57
2022-09-25T13:22:12.737Z,53.56
2022-09-25T13:25:13.890Z,53.79
2022-09-25T13:27:46.627Z,53.95
2022-09-25T13:30:29.772Z,53.56
2022-09-25T13:33:01.252Z,53.30
2022-09-25T13:35:31.429Z,52.91
2022-09-25T13:38:40.109Z,52.64
2022-09-25T13:41:13.991Z,52.97
2022-09-25T13:43:41.611Z,53.18
2022-09-25T13:46:15.192Z,52.95
2022-09-25T13:48:42.649Z,52.40
2022-09-25T13:51:19.012Z,52.81
2022-09-25T13:54:05.416Z,52.86
2022-09-25T13:56:41.386Z,52.88
2022-09-25T13:59:15.071Z,52.76
2022-09-25T14:01:55.411Z,52.65
2022-09-25T14:04:37.640Z,52.45
2022-09-25T14:07:23.605Z,52.59
2022-09-25T14:09:55.055Z,52.18
2022-09-25T14:12:40.747Z,52.46
2022-09-25T14:15:13.610Z,52.40
2022-09-25T14:17:43.809Z,52.20
2022-09-25T14:20:29.102Z,52.44
2022-09-25T14:23:00.583Z,52.58
2022-09-25T14:25:37.441Z,52.00
2022-09-25T14:28:23.594Z,52.37
2022-09-25T14:31:15.432Z,52.00
2022-09-25T14:34:10.152Z,52.56
2022-09-25T14:38:44.028Z,52.14
2022-09-25T14:41:39.525Z,52.66
2022-09-25T14:44:31.965Z,52.41
2022-09-25T14:46:59.378Z,52.97
2022-09-25T14:49:37.891Z,52.68
2022-09-25T14:52:10.914Z,53.13
2022-09-25T14:54:44.490Z,52.94
2022-09-25T14:57:17.341Z,52.99
2022-09-25T14:59:50.742Z,52.70
2022-09-25T15:02:43.789Z,53.23
2022-09-25T15:05:18.549Z,53.44
2022-09-25T15:07:47.297Z,53.50
2022-09-25T15:10:33.035Z,53.71
2022-09-25T15:13:21.021Z,53.25
2022-09-25T15:16:16.007Z,53.41
2022-09-25T15:18:46.823Z,53.69
2022-09-25T15:21:27.031Z,53.67
2022-09-25T15:23:59.617Z,54.18
2022-09-25T15:26:28.979Z,54.19
2022-09-25T15:28:56.817Z,54.26
2022-09-25T15:31:24.775Z,54.28
2022-09-25T15:34:13.366Z,54.24
2022-09-25T15:36:40.509Z,54.44
2022-09-25T15:39:16.582Z,54.50
2022-09-25T15:41:44.706Z,54.92
2022-09-25T15:44:24.191Z,54.82
2022-09-25T15:47:01.920Z,55.56
2022-09-25T15:49:39.231Z,55.19
2022-09-25T15:52:33.769Z,55.37
2022-09-25T15:55:14.809Z,55.36
2022-09-25T15:57:42.415Z,55.24
2022-09-25T16:00:40.961Z,55.63
2022-09-25T16:03:38.431Z,55.71
2022-09-25T16:06:06.373Z,55.97
2022-09-25T16:08:36.507Z,56.45
2022-09-25T16:11:22.718Z,56.56
2022-09-25T16:13:53.939Z,56.42
2022-09-25T16:16:30.261Z,56.93
2022-09-25T16:19:27.903Z,56.44
2022-09-25T16:21:55.843Z,57.01
2022-09-25T16:24:29.346Z,56.75
2022-09-25T16:27:03.375Z,56.77
2022-09-25T16:29:34.311Z,56.84
2022-09-25T16:32:06.351Z,56.58
2022-09-25T16:34:37.847Z,56.68
2022-09-25T16:37:18.765Z,57.29
2022-09-25T16:39:47.254Z,56.79
2022-09-25T16:42:39.531Z,57.46
2022-09-25T16:45:33.233Z,56.82
2022-09-25T16:48:35.435Z,57.29
2022-09-25T16:51:03.315Z,57.33
2022-09-25T16:53:32.263Z,57.56
2022-09-25T16:55:59.495Z,57.46
2022-09-25T16:58:27.091Z,57.35
2022-09-25T17:00:54.145Z,57.71
2022-09-25T17:03:21.747Z,57.98
2022-09-25T17:05:49.619Z,57.64
2022-09-25T17:08:24.119Z,58.08
2022-09-25T17:10:52.719Z,57.95
2022-09-25T17:13:27.977Z,58.12
2022-09-25T17:15:57.328Z,57.81
2022-09-25T17:18:24.230Z,58.26
2022-09-25T17:20:53.431Z,58.10
2022-09-25T17:23:23.113Z,57.89
2022-09-25T17:26:02.919Z,58.45
2022-09-25T17:28:30.088Z,57.99
2022-09-25T17:30:58.022Z,58.08
2022-09-25T17:33:25.136Z,58.35
2022-09-25T17:36:03.443Z,58.05
2022-09-25T17:38:33.957Z,58.50
2022-09-25T17:41:05.904Z,57.97
2022-09-25T17:43:33.806Z,58.42
2022-09-25T17:46:01.342Z,58.30
2022-09-25T17:48:32.106Z,58.38
2022-09-25T17:51:11.091Z,58.28
2022-09-25T17:53:39.203Z,58.28
2022-09-25T17:56:08.985Z,58.80
2022-09-25T17:58:36.260Z,58.86
2022-09-25T18:01:09.513Z,58.76
2022-09-25T18:03:36.466Z,58.92
2022-09-25T18:06:04.117Z,59.05
2022-09-25T18:08:31.233Z,58.97
2022-09-25T18:10:58.810Z,58.64
2022-09-25T18:13:26.128Z,59.12
2022-09-25T18:15:59.970Z,59.06
2022-09-25T18:18:49.586Z,59.11
2022-09-25T18:21:36.546Z,59.43
2022-09-25T18:24:04.118Z,59.68
2022-09-25T18:26:31.690Z,59.59
2022-09-25T18:28:58.722Z,59.44
2022-09-25T18:31:25.813Z,59.63
2022-09-25T18:33:55.072Z,60.14
2022-09-25T18:36:24.161Z,60.05
2022-09-25T18:38:52.346Z,60.02
2022-09-25T18:41:19.651Z,59.74
2022-09-25T18:43:46.738Z,59.86
2022-09-25T18:46:13.940Z,59.63
2022-09-25T18:48:47.881Z,59.62
2022-09-25T18:51:15.923Z,60.13
2022-09-25T18:53:45.371Z,60.00
2022-09-25T18:56:13.148Z,60.12
2022-09-25T18:58:40.241Z,60.25
2022-09-25T19:01:07.639Z,60.20
2022-09-25T19:03:40.100Z,60.20
2022-09-25T19:06:08.344Z,60.08
2022-09-25T19:08:36.619Z,60.41
2022-09-25T19:11:12.249Z,60.31
2022-09-25T19:13:40.095Z,60.30
2022-09-25T19:16:09.491Z,60.54
2022-09-25T19:18:37.294Z,60.71
2022-09-25T19:21:04.764Z,60.84
2022-09-25T19:23:35.512Z,60.19
2022-09-25T19:26:05.057Z,60.60
2022-09-25T19:28:35.475Z,61.09
2022-09-25T19:31:12.294Z,61.32
2022-09-25T19:33:39.448Z,60.94
2022-09-25T19:36:27.382Z,60.85
2022-09-25T19:38:56.281Z,61.11
2022-09-25T19:41:30.139Z,61.32
2022-09-25T19:44:01.180Z,61.16
2022-09-25T19:46:29.335Z,61.06
2022-09-25T19:48:56.464Z,61.20
2022-09-25T19:51:25.534Z,61.18
2022-09-25T19:53:54.047Z,61.42
2022-09-25T19:56:21.543Z,61.07
2022-09-25T19:58:51.055Z,61.33
2022-09-25T20:01:27.573Z,61.16
2022-09-25T20:03:56.683Z,61.65
2022-09-25T20:06:26.270Z,61.54
2022-09-25T20:08:58.683Z,61.31
2022-09-25T20:11:26.037Z,61.22
2022-09-25T20:13:55.070Z,61.46
2022-09-25T20:16:25.760Z,61.42
2022-09-25T20:19:02.654Z,61.63
2022-09-25T20:21:36.312Z,61.73
2022-09-25T20:24:06.085Z,62.02
2022-09-25T20:26:33.255Z,61.59
2022-09-25T20:29:04.914Z,61.83
2022-09-25T20:31:34.302Z,61.29
2022-09-25T20:34:02.498Z,61.59
2022-09-25T20:36:30.287Z,61.63
2022-09-25T20:38:58.321Z,61.42
2022-09-25T20:41:27.094Z,61.68
2022-09-25T20:43:56.875Z,61.66
2022-09-25T20:46:26.008Z,61.33
2022-09-25T20:48:57.562Z,61.84
2022-09-25T20:51:28.950Z,61.41
2022-09-25T20:54:03.677Z,61.79
2022-09-25T20:56:32.813Z,61.34
2022-09-25T20:59:01.227Z,61.56
2022-09-25T21:01:34.932Z,61.56
2022-09-25T21:04:05.946Z,61.47
2022-09-25T21:06:36.106Z,61.30
2022-09-25T21:09:07.733Z,61.97
2022-09-25T21:11:35.521Z,61.74
2022-09-25T21:14:03.770Z,61.55
2022-09-25T21:16:33.179Z,61.41
2022-09-25T21:19:04.783Z,61.35
2022-09-25T21:21:33.544Z,61.69
2022-09-25T21:24:02.338Z,61.46
2022-09-25T21:26:32.354Z,61.87
2022-09-25T21:29:03.667Z,61.65
2022-09-25T21:31:41.785Z,61.63
2022-09-25T21:34:15.119Z,61.71
2022-09-25T21:36:44.182Z,61.77
2022-09-25T21:39:11.458Z,61.83
2022-09-25T21:41:38.984Z,61.49
2022-09-25T21:44:13.162Z,61.58
2022-09-25T21:46:43.305Z,61.66
2022-09-25T21:49:18.513Z,61.67
2022-09-25T21:51:47.764Z,61.41
2022-09-25T21:54:16.401Z,61.29
2022-09-25T21:56:44.616Z,61.89
2022-09-25T21:59:12.502Z,61.70
2022-09-25T22:01:40.469Z,62.02
2022-09-25T22:04:12.316Z,61.93
2022-09-25T22:06:44.645Z,61.80
2022-09-25T22:09:20.551Z,62.17
2022-09-25T22:11:50.335Z,61.68
2022-09-25T22:14:19.190Z,61.78
2022-09-25T22:16:49.878Z,62.04
2022-09-25T22:19:21.696Z,61.97
2022-09-25T22:21:51.631Z,61.81
2022-09-25T22:24:19.322Z,61.85
2022-09-25T22:26:48.706Z,62.17
2022-09-25T22:29:16.711Z,61.79
2022-09-25T22:31:44.579Z,62.25
2022-09-25T22:34:25.466Z,62.15
2022-09-25T22:36:59.207Z,61.83
2022-09-25T22:39:28.981Z,62.44
2022-09-25T22:41:56.427Z,61.85
2022-09-25T22:44:24.422Z,62.17
2022-09-25T22:46:51.514Z,61.94
2022-09-25T22:49:18.582Z,62.33
2022-09-25T22:51:46.075Z,62.18
2022-09-25T22:54:14.515Z,62.09
2022-09-25T22:56:42.776Z,62.17
2022-09-25T22:59:16.199Z,62.17
2022-09-25T23:01:50.870Z,62.09
2022-09-25T23:04:22.071Z,62.53
2022-09-25T23:06:50.453Z,62.12
2022-09-25T23:09:21.890Z,62.27
2022-09-25T23:11:49.576Z,62.65
2022-09-25T23:14:23.433Z,62.47
2022-09-25T23:16:53.285Z,62.39
2022-09-25T23:19:21.649Z,62.63
2022-09-25T23:21:51.157Z,62.47
2022-09-25T23:24:19.958Z,62.67
2022-09-25T23:26:48.034Z,62.37
2022-09-25T23:29:17.683Z,62.55
2022-09-25T23:31:46.535Z,62.40
2022-09-25T23:34:14.468Z,62.52
2022-09-25T23:36:42.266Z,62.73
2022-09-25T23:39:14.385Z,62.30
2022-09-25T23:41:43.301Z,62.63
2022-09-25T23:44:11.751Z,62.90
2022-09-25T23:46:41.606Z,62.40
2022-09-25T23:49:09.909Z,62.63
2022-09-25T23:51:37.796Z,62.45
2022-09-25T23:54:05.542Z,62.79
2022-09-25T23:56:34.862Z,62.37
2022-09-25T23:59:03.246Z,62.40
